sensor_id;sensor_type;location;lat;lon;timestamp;P1;durP1;ratioP1;P2;durP2;ratioP2
12165;SDS011;6146;48.128;11.476;2023-03-11T00:01:00;1.30;;;1.20;;
12165;SDS011;6146;48.128;11.476;2023-03-11T00:03:25;1.30;;;1.20;;
12165;SDS011;6146;48.128;11.476;2023-03-11T00:05:53;1.40;;;1.30;;
12165;SDS011;6146;48.128;11.476;2023-03-11T00:08:20;1.60;;;1.40;;
12165;SDS011;6146;48.128;11.476;2023-03-11T00:10:51;1.33;;;1.20;;
12165;SDS011;6146;48.128;11.476;2023-03-11T00:13:19;1.37;;;1.27;;
12165;SDS011;6146;48.128;11.476;2023-03-11T00:15:45;1.50;;;1.17;;
12165;SDS011;6146;48.128;11.476;2023-03-11T00:18:14;1.40;;;1.30;;
12165;SDS011;6146;48.128;11.476;2023-03-11T00:20:41;1.30;;;1.20;;
12165;SDS011;6146;48.128;11.476;2023-03-11T00:23:08;1.93;;;1.30;;
12165;SDS011;6146;48.128;11.476;2023-03-11T00:25:36;1.50;;;1.40;;
12165;SDS011;6146;48.128;11.476;2023-03-11T00:28:02;1.27;;;1.20;;
12165;SDS011;6146;48.128;11.476;2023-03-11T00:30:29;1.00;;;1.00;;
12165;SDS011;6146;48.128;11.476;2023-03-11T00:32:55;1.40;;;1.10;;
12165;SDS011;6146;48.128;11.476;2023-03-11T00:35:23;0.80;;;0.80;;
12165;SDS011;6146;48.128;11.476;2023-03-11T00:37:54;1.30;;;1.20;;
12165;SDS011;6146;48.128;11.476;2023-03-11T00:40:22;1.00;;;0.97;;
12165;SDS011;6146;48.128;11.476;2023-03-11T00:42:50;1.00;;;1.00;;
12165;SDS011;6146;48.128;11.476;2023-03-11T00:45:16;1.33;;;1.07;;
12165;SDS011;6146;48.128;11.476;2023-03-11T00:47:42;1.90;;;1.20;;
12165;SDS011;6146;48.128;11.476;2023-03-11T00:50:08;2.00;;;1.40;;
12165;SDS011;6146;48.128;11.476;2023-03-11T00:52:37;1.00;;;1.00;;
12165;SDS011;6146;48.128;11.476;2023-03-11T00:55:03;1.20;;;1.10;;
12165;SDS011;6146;48.128;11.476;2023-03-11T00:57:30;1.40;;;1.20;;
12165;SDS011;6146;48.128;11.476;2023-03-11T00:59:55;0.83;;;0.83;;
12165;SDS011;6146;48.128;11.476;2023-03-11T01:02:22;1.10;;;1.00;;
12165;SDS011;6146;48.128;11.476;2023-03-11T01:04:52;1.20;;;1.10;;
12165;SDS011;6146;48.128;11.476;2023-03-11T01:07:20;3.40;;;1.30;;
12165;SDS011;6146;48.128;11.476;2023-03-11T01:09:46;1.57;;;1.13;;
12165;SDS011;6146;48.128;11.476;2023-03-11T01:12:12;1.00;;;1.00;;
12165;SDS011;6146;48.128;11.476;2023-03-11T01:14:37;1.17;;;1.10;;
12165;SDS011;6146;48.128;11.476;2023-03-11T01:17:03;1.00;;;1.00;;
12165;SDS011;6146;48.128;11.476;2023-03-11T01:19:29;1.90;;;1.27;;
12165;SDS011;6146;48.128;11.476;2023-03-11T01:21:54;1.13;;;1.13;;
12165;SDS011;6146;48.128;11.476;2023-03-11T01:24:20;1.20;;;1.10;;
12165;SDS011;6146;48.128;11.476;2023-03-11T01:26:45;1.43;;;1.33;;
12165;SDS011;6146;48.128;11.476;2023-03-11T01:29:11;1.30;;;1.20;;
12165;SDS011;6146;48.128;11.476;2023-03-11T01:31:36;1.33;;;1.23;;
12165;SDS011;6146;48.128;11.476;2023-03-11T01:34:02;1.33;;;1.23;;
12165;SDS011;6146;48.128;11.476;2023-03-11T01:36:27;1.27;;;1.17;;
12165;SDS011;6146;48.128;11.476;2023-03-11T01:38:53;1.30;;;1.20;;
12165;SDS011;6146;48.128;11.476;2023-03-11T01:41:18;2.07;;;1.43;;
12165;SDS011;6146;48.128;11.476;2023-03-11T01:46:20;1.40;;;1.30;;
12165;SDS011;6146;48.128;11.476;2023-03-11T01:51:37;1.60;;;1.50;;
12165;SDS011;6146;48.128;11.476;2023-03-11T01:54:09;1.10;;;1.10;;
12165;SDS011;6146;48.128;11.476;2023-03-11T01:56:37;1.50;;;1.40;;
12165;SDS011;6146;48.128;11.476;2023-03-11T01:59:05;1.30;;;1.20;;
12165;SDS011;6146;48.128;11.476;2023-03-11T02:01:32;1.20;;;1.10;;
12165;SDS011;6146;48.128;11.476;2023-03-11T02:04:01;2.37;;;1.40;;
12165;SDS011;6146;48.128;11.476;2023-03-11T02:06:28;1.30;;;1.20;;
12165;SDS011;6146;48.128;11.476;2023-03-11T02:08:56;2.23;;;1.10;;
12165;SDS011;6146;48.128;11.476;2023-03-11T02:11:25;1.13;;;1.10;;
12165;SDS011;6146;48.128;11.476;2023-03-11T02:13:53;1.37;;;1.27;;
12165;SDS011;6146;48.128;11.476;2023-03-11T02:16:22;1.40;;;1.30;;
12165;SDS011;6146;48.128;11.476;2023-03-11T02:18:47;1.20;;;1.10;;
12165;SDS011;6146;48.128;11.476;2023-03-11T02:21:31;1.20;;;1.10;;
12165;SDS011;6146;48.128;11.476;2023-03-11T02:24:08;1.40;;;1.30;;
12165;SDS011;6146;48.128;11.476;2023-03-11T02:29:29;1.40;;;1.30;;
12165;SDS011;6146;48.128;11.476;2023-03-11T02:31:57;2.00;;;1.17;;
12165;SDS011;6146;48.128;11.476;2023-03-11T02:34:27;1.53;;;1.40;;
12165;SDS011;6146;48.128;11.476;2023-03-11T02:36:55;1.87;;;1.20;;
12165;SDS011;6146;48.128;11.476;2023-03-11T02:39:37;1.40;;;1.30;;
12165;SDS011;6146;48.128;11.476;2023-03-11T02:42:17;1.47;;;1.30;;
12165;SDS011;6146;48.128;11.476;2023-03-11T02:47:32;1.00;;;0.93;;
12165;SDS011;6146;48.128;11.476;2023-03-11T02:50:00;1.30;;;1.20;;
12165;SDS011;6146;48.128;11.476;2023-03-11T02:52:27;1.30;;;1.20;;
12165;SDS011;6146;48.128;11.476;2023-03-11T02:54:53;1.43;;;1.20;;
12165;SDS011;6146;48.128;11.476;2023-03-11T02:57:18;1.20;;;1.10;;
12165;SDS011;6146;48.128;11.476;2023-03-11T02:59:44;1.83;;;1.30;;
12165;SDS011;6146;48.128;11.476;2023-03-11T03:02:09;1.70;;;1.10;;
12165;SDS011;6146;48.128;11.476;2023-03-11T03:04:35;1.30;;;1.20;;
12165;SDS011;6146;48.128;11.476;2023-03-11T03:07:01;1.27;;;1.17;;
12165;SDS011;6146;48.128;11.476;2023-03-11T03:09:26;1.00;;;1.00;;
12165;SDS011;6146;48.128;11.476;2023-03-11T03:11:52;1.27;;;1.17;;
12165;SDS011;6146;48.128;11.476;2023-03-11T03:14:17;1.30;;;1.10;;
12165;SDS011;6146;48.128;11.476;2023-03-11T03:16:43;1.43;;;1.33;;
12165;SDS011;6146;48.128;11.476;2023-03-11T03:19:09;1.30;;;1.20;;
12165;SDS011;6146;48.128;11.476;2023-03-11T03:21:34;1.37;;;1.27;;
12165;SDS011;6146;48.128;11.476;2023-03-11T03:24:00;1.07;;;0.97;;
12165;SDS011;6146;48.128;11.476;2023-03-11T03:26:25;1.10;;;1.10;;
12165;SDS011;6146;48.128;11.476;2023-03-11T03:28:51;1.13;;;1.00;;
12165;SDS011;6146;48.128;11.476;2023-03-11T03:31:16;1.00;;;1.00;;
12165;SDS011;6146;48.128;11.476;2023-03-11T03:33:42;1.20;;;1.10;;
12165;SDS011;6146;48.128;11.476;2023-03-11T03:36:08;2.23;;;1.20;;
12165;SDS011;6146;48.128;11.476;2023-03-11T03:38:36;1.00;;;1.00;;
12165;SDS011;6146;48.128;11.476;2023-03-11T03:41:02;1.47;;;1.10;;
12165;SDS011;6146;48.128;11.476;2023-03-11T03:43:27;1.57;;;1.10;;
12165;SDS011;6146;48.128;11.476;2023-03-11T03:45:56;1.10;;;1.00;;
12165;SDS011;6146;48.128;11.476;2023-03-11T03:48:23;1.60;;;1.20;;
12165;SDS011;6146;48.128;11.476;2023-03-11T03:50:48;1.13;;;1.03;;
12165;SDS011;6146;48.128;11.476;2023-03-11T03:53:14;2.30;;;1.40;;
12165;SDS011;6146;48.128;11.476;2023-03-11T03:55:39;1.03;;;1.00;;
12165;SDS011;6146;48.128;11.476;2023-03-11T03:58:05;1.27;;;1.17;;
12165;SDS011;6146;48.128;11.476;2023-03-11T04:00:30;2.60;;;1.20;;
12165;SDS011;6146;48.128;11.476;2023-03-11T04:02:56;0.93;;;0.93;;
12165;SDS011;6146;48.128;11.476;2023-03-11T04:05:21;1.30;;;1.20;;
12165;SDS011;6146;48.128;11.476;2023-03-11T04:07:50;1.90;;;1.00;;
12165;SDS011;6146;48.128;11.476;2023-03-11T04:10:16;1.23;;;1.13;;
12165;SDS011;6146;48.128;11.476;2023-03-11T04:12:42;1.30;;;1.20;;
12165;SDS011;6146;48.128;11.476;2023-03-11T04:15:08;1.13;;;1.10;;
12165;SDS011;6146;48.128;11.476;2023-03-11T04:17:33;1.20;;;1.10;;
12165;SDS011;6146;48.128;11.476;2023-03-11T04:20:00;1.30;;;1.20;;
12165;SDS011;6146;48.128;11.476;2023-03-11T04:22:25;1.17;;;1.07;;
12165;SDS011;6146;48.128;11.476;2023-03-11T04:24:51;1.00;;;1.00;;
12165;SDS011;6146;48.128;11.476;2023-03-11T04:27:16;1.10;;;1.00;;
12165;SDS011;6146;48.128;11.476;2023-03-11T04:29:42;1.97;;;1.10;;
12165;SDS011;6146;48.128;11.476;2023-03-11T04:32:07;1.23;;;1.10;;
12165;SDS011;6146;48.128;11.476;2023-03-11T04:34:33;1.40;;;1.30;;
12165;SDS011;6146;48.128;11.476;2023-03-11T04:36:59;1.20;;;1.10;;
12165;SDS011;6146;48.128;11.476;2023-03-11T04:39:24;1.70;;;1.13;;
12165;SDS011;6146;48.128;11.476;2023-03-11T04:41:50;3.07;;;1.30;;
12165;SDS011;6146;48.128;11.476;2023-03-11T04:44:15;1.60;;;1.50;;
12165;SDS011;6146;48.128;11.476;2023-03-11T04:46:41;2.33;;;1.30;;
12165;SDS011;6146;48.128;11.476;2023-03-11T04:49:07;1.50;;;1.33;;
12165;SDS011;6146;48.128;11.476;2023-03-11T04:51:32;2.00;;;1.10;;
12165;SDS011;6146;48.128;11.476;2023-03-11T04:53:58;1.33;;;1.23;;
12165;SDS011;6146;48.128;11.476;2023-03-11T04:56:23;1.57;;;1.20;;
12165;SDS011;6146;48.128;11.476;2023-03-11T04:58:49;1.93;;;1.37;;
12165;SDS011;6146;48.128;11.476;2023-03-11T05:01:14;1.80;;;1.40;;
12165;SDS011;6146;48.128;11.476;2023-03-11T05:03:40;2.80;;;1.10;;
12165;SDS011;6146;48.128;11.476;2023-03-11T05:06:06;2.43;;;1.23;;
12165;SDS011;6146;48.128;11.476;2023-03-11T05:08:31;1.40;;;1.30;;
12165;SDS011;6146;48.128;11.476;2023-03-11T05:10:57;1.53;;;1.17;;
12165;SDS011;6146;48.128;11.476;2023-03-11T05:13:22;1.57;;;1.30;;
12165;SDS011;6146;48.128;11.476;2023-03-11T05:15:48;1.40;;;1.30;;
12165;SDS011;6146;48.128;11.476;2023-03-11T05:18:14;1.43;;;1.30;;
12165;SDS011;6146;48.128;11.476;2023-03-11T05:20:39;1.50;;;1.13;;
12165;SDS011;6146;48.128;11.476;2023-03-11T05:23:05;1.40;;;1.30;;
12165;SDS011;6146;48.128;11.476;2023-03-11T05:25:31;1.77;;;1.60;;
12165;SDS011;6146;48.128;11.476;2023-03-11T05:27:56;1.83;;;1.47;;
12165;SDS011;6146;48.128;11.476;2023-03-11T05:30:22;1.23;;;1.13;;
12165;SDS011;6146;48.128;11.476;2023-03-11T05:32:48;1.80;;;1.40;;
12165;SDS011;6146;48.128;11.476;2023-03-11T05:35:13;2.60;;;1.40;;
12165;SDS011;6146;48.128;11.476;2023-03-11T05:37:39;2.03;;;1.53;;
12165;SDS011;6146;48.128;11.476;2023-03-11T05:40:05;2.53;;;1.57;;
12165;SDS011;6146;48.128;11.476;2023-03-11T05:42:32;1.90;;;1.30;;
12165;SDS011;6146;48.128;11.476;2023-03-11T05:44:58;1.43;;;1.33;;
12165;SDS011;6146;48.128;11.476;2023-03-11T05:47:24;1.87;;;1.30;;
12165;SDS011;6146;48.128;11.476;2023-03-11T05:49:49;1.70;;;1.57;;
12165;SDS011;6146;48.128;11.476;2023-03-11T05:52:15;1.50;;;1.40;;
12165;SDS011;6146;48.128;11.476;2023-03-11T05:54:41;1.30;;;1.20;;
12165;SDS011;6146;48.128;11.476;2023-03-11T05:57:06;2.00;;;1.40;;
12165;SDS011;6146;48.128;11.476;2023-03-11T05:59:32;1.60;;;1.50;;
12165;SDS011;6146;48.128;11.476;2023-03-11T06:01:59;1.60;;;1.30;;
12165;SDS011;6146;48.128;11.476;2023-03-11T06:04:25;1.57;;;1.37;;
12165;SDS011;6146;48.128;11.476;2023-03-11T06:06:51;1.83;;;1.30;;
12165;SDS011;6146;48.128;11.476;2023-03-11T06:09:17;1.33;;;1.23;;
12165;SDS011;6146;48.128;11.476;2023-03-11T06:11:43;1.93;;;1.30;;
12165;SDS011;6146;48.128;11.476;2023-03-11T06:14:10;1.07;;;1.03;;
12165;SDS011;6146;48.128;11.476;2023-03-11T06:16:37;1.17;;;1.10;;
12165;SDS011;6146;48.128;11.476;2023-03-11T06:19:02;1.80;;;1.70;;
12165;SDS011;6146;48.128;11.476;2023-03-11T06:21:28;2.30;;;1.43;;
12165;SDS011;6146;48.128;11.476;2023-03-11T06:23:54;1.60;;;1.50;;
12165;SDS011;6146;48.128;11.476;2023-03-11T06:26:19;1.87;;;1.40;;
12165;SDS011;6146;48.128;11.476;2023-03-11T06:28:47;1.93;;;1.33;;
12165;SDS011;6146;48.128;11.476;2023-03-11T06:31:14;1.63;;;1.20;;
12165;SDS011;6146;48.128;11.476;2023-03-11T06:33:41;2.47;;;1.33;;
12165;SDS011;6146;48.128;11.476;2023-03-11T06:36:08;1.50;;;1.40;;
12165;SDS011;6146;48.128;11.476;2023-03-11T06:38:36;1.20;;;1.10;;
12165;SDS011;6146;48.128;11.476;2023-03-11T06:41:02;1.17;;;1.03;;
12165;SDS011;6146;48.128;11.476;2023-03-11T06:43:29;1.40;;;1.30;;
12165;SDS011;6146;48.128;11.476;2023-03-11T06:45:55;1.50;;;1.40;;
12165;SDS011;6146;48.128;11.476;2023-03-11T06:48:21;1.77;;;1.40;;
12165;SDS011;6146;48.128;11.476;2023-03-11T06:50:57;1.47;;;1.30;;
12165;SDS011;6146;48.128;11.476;2023-03-11T06:53:23;1.73;;;1.27;;
12165;SDS011;6146;48.128;11.476;2023-03-11T06:58:28;1.63;;;1.37;;
12165;SDS011;6146;48.128;11.476;2023-03-11T07:00:58;1.57;;;1.10;;
12165;SDS011;6146;48.128;11.476;2023-03-11T07:03:28;3.70;;;1.53;;
12165;SDS011;6146;48.128;11.476;2023-03-11T07:05:54;2.13;;;1.63;;
12165;SDS011;6146;48.128;11.476;2023-03-11T07:08:21;2.37;;;1.47;;
12165;SDS011;6146;48.128;11.476;2023-03-11T07:10:46;1.93;;;1.50;;
12165;SDS011;6146;48.128;11.476;2023-03-11T07:13:27;1.90;;;1.60;;
12165;SDS011;6146;48.128;11.476;2023-03-11T07:16:12;1.53;;;1.43;;
12165;SDS011;6146;48.128;11.476;2023-03-11T07:18:43;2.20;;;1.60;;
12165;SDS011;6146;48.128;11.476;2023-03-11T07:21:10;3.17;;;1.60;;
12165;SDS011;6146;48.128;11.476;2023-03-11T07:23:41;1.00;;;1.00;;
12165;SDS011;6146;48.128;11.476;2023-03-11T07:26:10;2.13;;;1.43;;
12165;SDS011;6146;48.128;11.476;2023-03-11T07:28:37;3.17;;;1.60;;
12165;SDS011;6146;48.128;11.476;2023-03-11T07:31:07;1.73;;;1.50;;
12165;SDS011;6146;48.128;11.476;2023-03-11T07:33:34;3.10;;;1.70;;
12165;SDS011;6146;48.128;11.476;2023-03-11T07:36:03;2.63;;;1.50;;
12165;SDS011;6146;48.128;11.476;2023-03-11T07:38:36;2.17;;;1.83;;
12165;SDS011;6146;48.128;11.476;2023-03-11T07:41:02;3.03;;;1.80;;
12165;SDS011;6146;48.128;11.476;2023-03-11T07:43:28;1.57;;;1.47;;
12165;SDS011;6146;48.128;11.476;2023-03-11T07:46:13;1.70;;;1.53;;
12165;SDS011;6146;48.128;11.476;2023-03-11T07:48:43;3.53;;;1.70;;
12165;SDS011;6146;48.128;11.476;2023-03-11T07:51:13;7.43;;;2.03;;
12165;SDS011;6146;48.128;11.476;2023-03-11T07:53:50;4.57;;;1.83;;
12165;SDS011;6146;48.128;11.476;2023-03-11T07:56:17;3.13;;;1.83;;
12165;SDS011;6146;48.128;11.476;2023-03-11T07:58:43;1.73;;;1.50;;
12165;SDS011;6146;48.128;11.476;2023-03-11T08:01:13;1.50;;;1.40;;
12165;SDS011;6146;48.128;11.476;2023-03-11T08:03:41;3.57;;;1.63;;
12165;SDS011;6146;48.128;11.476;2023-03-11T08:06:15;6.10;;;1.70;;
12165;SDS011;6146;48.128;11.476;2023-03-11T08:08:45;4.03;;;1.60;;
12165;SDS011;6146;48.128;11.476;2023-03-11T08:11:11;1.97;;;1.40;;
12165;SDS011;6146;48.128;11.476;2023-03-11T08:13:38;3.47;;;1.53;;
12165;SDS011;6146;48.128;11.476;2023-03-11T08:16:05;4.77;;;2.00;;
12165;SDS011;6146;48.128;11.476;2023-03-11T08:18:33;1.57;;;1.40;;
12165;SDS011;6146;48.128;11.476;2023-03-11T08:20:59;1.90;;;1.53;;
12165;SDS011;6146;48.128;11.476;2023-03-11T08:23:32;2.67;;;1.43;;
12165;SDS011;6146;48.128;11.476;2023-03-11T08:25:58;2.47;;;1.70;;
12165;SDS011;6146;48.128;11.476;2023-03-11T08:28:27;2.83;;;1.70;;
12165;SDS011;6146;48.128;11.476;2023-03-11T08:30:52;2.50;;;1.70;;
12165;SDS011;6146;48.128;11.476;2023-03-11T08:33:18;2.70;;;1.60;;
12165;SDS011;6146;48.128;11.476;2023-03-11T08:35:43;4.47;;;2.27;;
12165;SDS011;6146;48.128;11.476;2023-03-11T08:38:09;2.67;;;1.67;;
12165;SDS011;6146;48.128;11.476;2023-03-11T08:40:34;3.43;;;1.40;;
12165;SDS011;6146;48.128;11.476;2023-03-11T08:43:00;3.03;;;1.40;;
12165;SDS011;6146;48.128;11.476;2023-03-11T08:45:26;7.37;;;1.97;;
12165;SDS011;6146;48.128;11.476;2023-03-11T08:47:51;3.27;;;1.80;;
12165;SDS011;6146;48.128;11.476;2023-03-11T08:50:17;2.47;;;1.67;;
12165;SDS011;6146;48.128;11.476;2023-03-11T08:52:43;1.77;;;1.67;;
12165;SDS011;6146;48.128;11.476;2023-03-11T08:55:13;1.50;;;1.40;;
12165;SDS011;6146;48.128;11.476;2023-03-11T08:57:41;1.40;;;1.30;;
12165;SDS011;6146;48.128;11.476;2023-03-11T09:00:07;4.07;;;1.80;;
12165;SDS011;6146;48.128;11.476;2023-03-11T09:02:33;1.97;;;1.23;;
12165;SDS011;6146;48.128;11.476;2023-03-11T09:04:59;1.57;;;1.37;;
12165;SDS011;6146;48.128;11.476;2023-03-11T09:07:24;1.97;;;1.17;;
12165;SDS011;6146;48.128;11.476;2023-03-11T09:09:50;1.70;;;1.00;;
12165;SDS011;6146;48.128;11.476;2023-03-11T09:12:15;1.30;;;1.20;;
12165;SDS011;6146;48.128;11.476;2023-03-11T09:14:41;2.13;;;1.20;;
12165;SDS011;6146;48.128;11.476;2023-03-11T09:17:08;1.50;;;1.37;;
12165;SDS011;6146;48.128;11.476;2023-03-11T09:19:34;2.23;;;1.30;;
12165;SDS011;6146;48.128;11.476;2023-03-11T09:22:00;3.00;;;1.20;;
12165;SDS011;6146;48.128;11.476;2023-03-11T09:24:26;3.77;;;1.10;;
12165;SDS011;6146;48.128;11.476;2023-03-11T09:26:52;2.50;;;1.37;;
12165;SDS011;6146;48.128;11.476;2023-03-11T09:29:18;1.20;;;1.00;;
12165;SDS011;6146;48.128;11.476;2023-03-11T09:31:43;4.20;;;1.77;;
12165;SDS011;6146;48.128;11.476;2023-03-11T09:34:10;1.93;;;1.50;;
12165;SDS011;6146;48.128;11.476;2023-03-11T09:36:39;2.80;;;1.40;;
12165;SDS011;6146;48.128;11.476;2023-03-11T09:39:05;1.13;;;1.00;;
12165;SDS011;6146;48.128;11.476;2023-03-11T09:41:33;1.13;;;1.00;;
12165;SDS011;6146;48.128;11.476;2023-03-11T09:47:36;2.40;;;1.40;;
12165;SDS011;6146;48.128;11.476;2023-03-11T09:50:25;1.20;;;0.83;;
12165;SDS011;6146;48.128;11.476;2023-03-11T09:53:04;1.80;;;1.00;;
12165;SDS011;6146;48.128;11.476;2023-03-11T09:55:46;1.60;;;1.00;;
12165;SDS011;6146;48.128;11.476;2023-03-11T10:06:45;1.53;;;1.40;;
12165;SDS011;6146;48.128;11.476;2023-03-11T10:14:33;1.40;;;1.20;;
12165;SDS011;6146;48.128;11.476;2023-03-11T10:20:07;1.10;;;0.80;;
12165;SDS011;6146;48.128;11.476;2023-03-11T10:25:23;0.93;;;0.90;;
12165;SDS011;6146;48.128;11.476;2023-03-11T10:28:11;0.93;;;0.90;;
12165;SDS011;6146;48.128;11.476;2023-03-11T10:30:40;1.27;;;0.90;;
12165;SDS011;6146;48.128;11.476;2023-03-11T10:33:22;1.73;;;1.10;;
12165;SDS011;6146;48.128;11.476;2023-03-11T10:35:52;1.03;;;0.90;;
12165;SDS011;6146;48.128;11.476;2023-03-11T10:38:21;0.97;;;0.87;;
12165;SDS011;6146;48.128;11.476;2023-03-11T10:40:53;1.50;;;1.13;;
12165;SDS011;6146;48.128;11.476;2023-03-11T10:45:55;1.03;;;1.00;;
12165;SDS011;6146;48.128;11.476;2023-03-11T10:48:23;2.77;;;1.10;;
12165;SDS011;6146;48.128;11.476;2023-03-11T10:51:00;1.97;;;1.10;;
12165;SDS011;6146;48.128;11.476;2023-03-11T10:53:46;1.43;;;1.13;;
12165;SDS011;6146;48.128;11.476;2023-03-11T10:56:26;1.43;;;1.07;;
12165;SDS011;6146;48.128;11.476;2023-03-11T10:58:57;2.77;;;1.00;;
12165;SDS011;6146;48.128;11.476;2023-03-11T11:01:23;1.07;;;1.03;;
12165;SDS011;6146;48.128;11.476;2023-03-11T11:03:51;2.27;;;1.00;;
12165;SDS011;6146;48.128;11.476;2023-03-11T11:06:25;1.17;;;0.90;;
12165;SDS011;6146;48.128;11.476;2023-03-11T11:11:30;1.00;;;0.90;;
12165;SDS011;6146;48.128;11.476;2023-03-11T11:13:58;0.93;;;0.93;;
12165;SDS011;6146;48.128;11.476;2023-03-11T11:16:24;1.10;;;1.00;;
12165;SDS011;6146;48.128;11.476;2023-03-11T11:18:54;1.37;;;1.20;;
12165;SDS011;6146;48.128;11.476;2023-03-11T11:21:41;1.40;;;1.20;;
12165;SDS011;6146;48.128;11.476;2023-03-11T11:27:01;2.47;;;1.17;;
12165;SDS011;6146;48.128;11.476;2023-03-11T11:29:42;1.97;;;1.20;;
12165;SDS011;6146;48.128;11.476;2023-03-11T11:34:51;1.20;;;1.10;;
12165;SDS011;6146;48.128;11.476;2023-03-11T11:37:21;0.90;;;0.90;;
12165;SDS011;6146;48.128;11.476;2023-03-11T11:39:49;1.83;;;1.00;;
12165;SDS011;6146;48.128;11.476;2023-03-11T11:42:22;1.37;;;1.20;;
12165;SDS011;6146;48.128;11.476;2023-03-11T11:44:51;1.20;;;1.10;;
12165;SDS011;6146;48.128;11.476;2023-03-11T11:47:23;2.13;;;1.00;;
12165;SDS011;6146;48.128;11.476;2023-03-11T11:49:53;1.30;;;1.20;;
12165;SDS011;6146;48.128;11.476;2023-03-11T11:52:24;1.57;;;0.93;;
12165;SDS011;6146;48.128;11.476;2023-03-11T11:55:00;1.80;;;1.10;;
12165;SDS011;6146;48.128;11.476;2023-03-11T11:57:26;1.43;;;1.27;;
12165;SDS011;6146;48.128;11.476;2023-03-11T11:59:52;1.27;;;1.10;;
12165;SDS011;6146;48.128;11.476;2023-03-11T12:07:51;2.87;;;1.53;;
12165;SDS011;6146;48.128;11.476;2023-03-11T12:16:37;2.40;;;1.40;;
12165;SDS011;6146;48.128;11.476;2023-03-11T12:19:16;2.77;;;1.30;;
12165;SDS011;6146;48.128;11.476;2023-03-11T12:22:18;1.57;;;1.10;;
12165;SDS011;6146;48.128;11.476;2023-03-11T12:30:53;3.10;;;1.20;;
12165;SDS011;6146;48.128;11.476;2023-03-11T12:33:36;1.10;;;1.00;;
12165;SDS011;6146;48.128;11.476;2023-03-11T12:36:03;1.43;;;1.20;;
12165;SDS011;6146;48.128;11.476;2023-03-11T12:38:37;1.40;;;0.90;;
12165;SDS011;6146;48.128;11.476;2023-03-11T12:46:03;1.13;;;1.03;;
12165;SDS011;6146;48.128;11.476;2023-03-11T12:53:51;1.80;;;1.23;;
12165;SDS011;6146;48.128;11.476;2023-03-11T13:01:42;1.80;;;1.33;;
12165;SDS011;6146;48.128;11.476;2023-03-11T13:04:30;2.03;;;1.40;;
12165;SDS011;6146;48.128;11.476;2023-03-11T13:12:47;1.50;;;1.40;;
12165;SDS011;6146;48.128;11.476;2023-03-11T13:17:42;1.73;;;1.40;;
12165;SDS011;6146;48.128;11.476;2023-03-11T13:25:39;3.47;;;1.50;;
12165;SDS011;6146;48.128;11.476;2023-03-11T13:30:39;2.20;;;1.50;;
12165;SDS011;6146;48.128;11.476;2023-03-11T13:36:04;1.93;;;1.40;;
12165;SDS011;6146;48.128;11.476;2023-03-11T13:41:50;1.40;;;1.30;;
12165;SDS011;6146;48.128;11.476;2023-03-11T13:46:48;2.00;;;1.50;;
12165;SDS011;6146;48.128;11.476;2023-03-11T13:49:43;2.90;;;1.63;;
12165;SDS011;6146;48.128;11.476;2023-03-11T13:52:32;2.63;;;1.30;;
12165;SDS011;6146;48.128;11.476;2023-03-11T13:55:02;1.90;;;1.40;;
12165;SDS011;6146;48.128;11.476;2023-03-11T13:57:34;1.60;;;1.50;;
12165;SDS011;6146;48.128;11.476;2023-03-11T14:00:20;2.60;;;1.30;;
12165;SDS011;6146;48.128;11.476;2023-03-11T14:02:53;1.90;;;1.70;;
12165;SDS011;6146;48.128;11.476;2023-03-11T14:05:32;2.07;;;1.60;;
12165;SDS011;6146;48.128;11.476;2023-03-11T14:08:39;3.07;;;1.47;;
12165;SDS011;6146;48.128;11.476;2023-03-11T14:11:13;2.30;;;1.60;;
12165;SDS011;6146;48.128;11.476;2023-03-11T14:13:47;1.70;;;1.50;;
12165;SDS011;6146;48.128;11.476;2023-03-11T14:16:18;2.27;;;1.70;;
12165;SDS011;6146;48.128;11.476;2023-03-11T14:18:47;2.07;;;1.50;;
12165;SDS011;6146;48.128;11.476;2023-03-11T14:21:25;2.43;;;1.90;;
12165;SDS011;6146;48.128;11.476;2023-03-11T14:23:52;2.03;;;1.70;;
12165;SDS011;6146;48.128;11.476;2023-03-11T14:28:53;1.50;;;1.40;;
12165;SDS011;6146;48.128;11.476;2023-03-11T14:31:28;1.80;;;1.67;;
12165;SDS011;6146;48.128;11.476;2023-03-11T14:34:12;2.20;;;1.60;;
12165;SDS011;6146;48.128;11.476;2023-03-11T14:36:55;2.00;;;1.60;;
12165;SDS011;6146;48.128;11.476;2023-03-11T14:39:30;2.17;;;1.70;;
12165;SDS011;6146;48.128;11.476;2023-03-11T14:42:03;2.90;;;1.70;;
12165;SDS011;6146;48.128;11.476;2023-03-11T14:44:49;2.53;;;1.53;;
12165;SDS011;6146;48.128;11.476;2023-03-11T14:50:10;2.07;;;1.87;;
12165;SDS011;6146;48.128;11.476;2023-03-11T14:52:47;3.20;;;1.90;;
12165;SDS011;6146;48.128;11.476;2023-03-11T14:55:28;1.83;;;1.60;;
12165;SDS011;6146;48.128;11.476;2023-03-11T15:03:27;1.90;;;1.80;;
12165;SDS011;6146;48.128;11.476;2023-03-11T15:05:57;1.97;;;1.77;;
12165;SDS011;6146;48.128;11.476;2023-03-11T15:08:27;1.70;;;1.57;;
12165;SDS011;6146;48.128;11.476;2023-03-11T15:11:03;2.40;;;1.77;;
12165;SDS011;6146;48.128;11.476;2023-03-11T15:13:29;4.13;;;1.73;;
12165;SDS011;6146;48.128;11.476;2023-03-11T15:15:56;2.60;;;1.90;;
12165;SDS011;6146;48.128;11.476;2023-03-11T15:18:36;3.03;;;1.80;;
12165;SDS011;6146;48.128;11.476;2023-03-11T15:21:03;2.57;;;1.70;;
12165;SDS011;6146;48.128;11.476;2023-03-11T15:23:36;2.47;;;1.80;;
12165;SDS011;6146;48.128;11.476;2023-03-11T15:26:02;2.67;;;1.90;;
12165;SDS011;6146;48.128;11.476;2023-03-11T15:28:28;2.03;;;1.67;;
12165;SDS011;6146;48.128;11.476;2023-03-11T15:33:40;3.67;;;1.60;;
12165;SDS011;6146;48.128;11.476;2023-03-11T15:36:26;4.87;;;1.80;;
12165;SDS011;6146;48.128;11.476;2023-03-11T15:39:57;2.80;;;1.70;;
12165;SDS011;6146;48.128;11.476;2023-03-11T15:47:19;2.27;;;2.00;;
12165;SDS011;6146;48.128;11.476;2023-03-11T15:49:45;1.77;;;1.67;;
12165;SDS011;6146;48.128;11.476;2023-03-11T15:52:12;3.40;;;1.70;;
12165;SDS011;6146;48.128;11.476;2023-03-11T15:54:38;3.43;;;1.93;;
12165;SDS011;6146;48.128;11.476;2023-03-11T15:57:05;2.43;;;1.97;;
12165;SDS011;6146;48.128;11.476;2023-03-11T15:59:33;4.20;;;2.10;;
12165;SDS011;6146;48.128;11.476;2023-03-11T16:02:00;2.57;;;1.97;;
12165;SDS011;6146;48.128;11.476;2023-03-11T16:04:25;2.53;;;1.70;;
12165;SDS011;6146;48.128;11.476;2023-03-11T16:06:51;6.10;;;2.20;;
12165;SDS011;6146;48.128;11.476;2023-03-11T16:09:18;3.27;;;1.90;;
12165;SDS011;6146;48.128;11.476;2023-03-11T16:11:43;3.63;;;2.10;;
12165;SDS011;6146;48.128;11.476;2023-03-11T16:14:16;2.27;;;2.07;;
12165;SDS011;6146;48.128;11.476;2023-03-11T16:16:44;2.60;;;1.90;;
12165;SDS011;6146;48.128;11.476;2023-03-11T16:19:10;2.83;;;1.90;;
12165;SDS011;6146;48.128;11.476;2023-03-11T16:21:38;2.37;;;1.80;;
12165;SDS011;6146;48.128;11.476;2023-03-11T16:24:06;2.33;;;2.10;;
12165;SDS011;6146;48.128;11.476;2023-03-11T16:26:35;3.50;;;2.47;;
12165;SDS011;6146;48.128;11.476;2023-03-11T16:29:01;4.00;;;2.00;;
12165;SDS011;6146;48.128;11.476;2023-03-11T16:31:27;3.00;;;1.87;;
12165;SDS011;6146;48.128;11.476;2023-03-11T16:33:54;2.80;;;2.20;;
12165;SDS011;6146;48.128;11.476;2023-03-11T16:36:19;3.00;;;1.87;;
12165;SDS011;6146;48.128;11.476;2023-03-11T16:38:46;2.47;;;1.90;;
12165;SDS011;6146;48.128;11.476;2023-03-11T16:41:13;2.37;;;1.73;;
12165;SDS011;6146;48.128;11.476;2023-03-11T16:43:40;2.93;;;2.20;;
12165;SDS011;6146;48.128;11.476;2023-03-11T16:46:06;1.80;;;1.70;;
12165;SDS011;6146;48.128;11.476;2023-03-11T16:48:31;2.07;;;1.90;;
12165;SDS011;6146;48.128;11.476;2023-03-11T16:50:57;3.10;;;2.10;;
12165;SDS011;6146;48.128;11.476;2023-03-11T16:53:23;2.23;;;2.00;;
12165;SDS011;6146;48.128;11.476;2023-03-11T16:55:50;3.43;;;2.30;;
12165;SDS011;6146;48.128;11.476;2023-03-11T16:58:16;2.70;;;2.10;;
12165;SDS011;6146;48.128;11.476;2023-03-11T17:00:42;4.30;;;2.60;;
12165;SDS011;6146;48.128;11.476;2023-03-11T17:03:12;3.00;;;2.10;;